Time;durP1;ratioP1;P1;durP2;ratioP2;P2;SDS_P1;SDS_P2;PMS_P1;PMS_P2;Temp;Humidity;BMP_temperature;BMP_pressure;BME280_temperature;BME280_humidity;BME280_pressure;Samples;Min_cycle;Max_cycle;Signal;HPM_P1;HPM_P2
2022/08/06 00:01:55;;;;;;;4.10;3.80;;;25.00;78.70;;;;;;5093874;28;20180;-70
2022/08/06 00:04:21;;;;;;;4.40;4.00;;;25.00;78.70;;;;;;5093641;28;20679;-70
2022/08/06 00:06:47;;;;;;;4.40;4.10;;;25.00;78.60;;;;;;5093637;28;20204;-70
2022/08/06 00:09:13;;;;;;;3.90;3.60;;;25.00;78.70;;;;;;5076124;28;20260;-70
2022/08/06 00:11:40;;;;;;;4.50;4.10;;;25.00;78.60;;;;;;5072872;28;20250;-70
2022/08/06 00:14:07;;;;;;;4.20;3.90;;;25.00;78.60;;;;;;5073441;28;20177;-70
2022/08/06 00:16:34;;;;;;;3.72;3.42;;;25.00;78.60;;;;;;5056502;28;20659;-70
2022/08/06 00:19:00;;;;;;;3.80;3.50;;;25.00;78.60;;;;;;5072828;28;20189;-70
2022/08/06 00:21:26;;;;;;;3.85;3.55;;;25.00;78.70;;;;;;5073655;28;20177;-70
2022/08/06 00:23:52;;;;;;;4.13;3.83;;;25.00;78.60;;;;;;5073483;28;20184;-70
2022/08/06 00:26:17;;;;;;;3.78;3.47;;;25.00;78.60;;;;;;5076173;28;20680;-70
2022/08/06 00:28:44;;;;;;;4.47;3.92;;;25.00;78.50;;;;;;5090953;28;20790;-70
2022/08/06 00:31:09;;;;;;;3.90;3.60;;;25.00;78.50;;;;;;5076714;28;20180;-70
2022/08/06 00:33:36;;;;;;;4.35;4.05;;;25.00;78.60;;;;;;5094541;28;20176;-71
2022/08/06 00:36:03;;;;;;;3.90;3.60;;;25.00;78.50;;;;;;5115186;28;20188;-70
2022/08/06 00:38:29;;;;;;;4.00;3.70;;;25.00;78.30;;;;;;5096670;28;20207;-70
2022/08/06 00:40:55;;;;;;;3.75;3.45;;;25.00;78.40;;;;;;5113556;28;20180;-70
2022/08/06 00:43:21;;;;;;;4.00;3.70;;;25.00;78.50;;;;;;5096869;28;20227;-70
2022/08/06 00:45:47;;;;;;;3.50;3.20;;;25.00;78.40;;;;;;5096842;28;20207;-70
2022/08/06 00:48:13;;;;;;;4.13;3.65;;;25.00;78.30;;;;;;5096438;28;20726;-70
2022/08/06 00:50:39;;;;;;;3.55;3.33;;;25.00;79.10;;;;;;5079845;28;20200;-70
2022/08/06 00:53:05;;;;;;;3.30;3.03;;;25.00;78.30;;;;;;5115017;28;20180;-70
2022/08/06 00:55:31;;;;;;;3.45;3.20;;;25.00;78.30;;;;;;5096666;28;20284;-70
2022/08/06 00:57:58;;;;;;;3.20;3.00;;;25.00;78.30;;;;;;5096036;28;20218;-70
2022/08/06 01:00:24;;;;;;;3.40;3.20;;;25.00;78.30;;;;;;5079995;28;20198;-70
2022/08/06 01:02:50;;;;;;;3.60;3.30;;;25.00;78.30;;;;;;5096668;28;20659;-70
2022/08/06 01:05:16;;;;;;;3.80;3.50;;;24.90;78.20;;;;;;5114720;28;20184;-69
2022/08/06 01:07:42;;;;;;;3.80;3.50;;;25.00;78.30;;;;;;5113955;28;20219;-70
2022/08/06 01:10:08;;;;;;;3.65;3.35;;;24.90;78.20;;;;;;5114550;28;20204;-69
2022/08/06 01:12:34;;;;;;;3.78;3.47;;;24.90;78.20;;;;;;5096306;28;20187;-70
2022/08/06 01:15:00;;;;;;;3.80;3.30;;;24.90;78.20;;;;;;5096387;28;20188;-69
2022/08/06 01:18:04;;;;;;;3.80;3.50;;;24.90;78.20;;;;;;5095877;28;20203;-70
2022/08/06 01:21:13;;;;;;;3.78;3.58;;;24.90;78.20;;;;;;5096242;28;20176;-70
2022/08/06 01:24:17;;;;;;;3.80;3.35;;;24.90;78.20;;;;;;5096505;28;20199;-70
2022/08/06 01:27:37;;;;;;;3.17;2.97;;;25.00;78.30;;;;;;5096105;28;20228;-70
2022/08/06 01:30:09;;;;;;;3.28;3.08;;;24.90;78.20;;;;;;5096121;28;20261;-70
2022/08/06 01:32:52;;;;;;;3.47;3.17;;;24.90;78.20;;;;;;5114294;28;20233;-70
2022/08/06 01:35:28;;;;;;;3.35;3.13;;;24.90;78.20;;;;;;5095971;28;20184;-70
2022/08/06 01:38:11;;;;;;;3.22;3.03;;;25.00;78.30;;;;;;5078758;28;20216;-71
2022/08/06 01:40:42;;;;;;;3.17;2.97;;;24.90;78.20;;;;;;5095138;28;20192;-71
2022/08/06 01:43:13;;;;;;;3.40;3.10;;;24.90;78.20;;;;;;5095755;28;20192;-70
2022/08/06 01:45:41;;;;;;;3.10;2.90;;;24.90;78.20;;;;;;5095783;28;20180;-70
2022/08/06 01:48:19;;;;;;;3.03;2.83;;;24.90;78.20;;;;;;5095691;28;20204;-71
2022/08/06 01:50:49;;;;;;;3.28;3.08;;;24.90;78.20;;;;;;5114534;28;20211;-72
2022/08/06 01:53:25;;;;;;;3.40;3.10;;;24.90;78.20;;;;;;5096202;28;20169;-71
2022/08/06 01:55:56;;;;;;;3.28;3.08;;;24.90;78.00;;;;;;5114333;28;20247;-70
2022/08/06 01:58:29;;;;;;;3.30;3.00;;;24.90;77.90;;;;;;5078920;28;20211;-71
2022/08/06 02:00:57;;;;;;;3.60;3.40;;;24.90;77.90;;;;;;5095860;28;20191;-71
2022/08/06 02:03:30;;;;;;;2.97;2.78;;;24.90;78.00;;;;;;5079117;28;20263;-71
2022/08/06 02:05:58;;;;;;;3.53;3.22;;;24.90;77.80;;;;;;5114016;28;20176;-70
2022/08/06 02:08:31;;;;;;;3.00;2.80;;;24.90;77.70;;;;;;5111954;28;20208;-70
2022/08/06 02:11:00;;;;;;;2.92;2.72;;;24.90;77.60;;;;;;5112671;28;20208;-71
2022/08/06 02:13:31;;;;;;;2.70;2.50;;;24.90;77.50;;;;;;5095680;28;20180;-70
2022/08/06 02:16:04;;;;;;;3.08;2.88;;;24.90;78.20;;;;;;5113801;28;20271;-70
2022/08/06 02:18:39;;;;;;;2.85;2.65;;;24.90;77.80;;;;;;5091365;28;20700;-71
2022/08/06 02:21:12;;;;;;;2.78;2.58;;;24.90;77.80;;;;;;5075444;28;20195;-70
2022/08/06 02:23:39;;;;;;;2.83;2.63;;;24.90;77.70;;;;;;5075256;28;20189;-70
2022/08/06 02:26:07;;;;;;;3.00;2.80;;;24.90;77.50;;;;;;5074875;28;20181;-72
2022/08/06 02:28:36;;;;;;;3.25;2.80;;;24.90;77.30;;;;;;5073997;28;20312;-71
2022/08/06 02:31:02;;;;;;;2.60;2.40;;;24.90;77.40;;;;;;5058332;28;20215;-70
2022/08/06 02:33:29;;;;;;;2.92;2.72;;;24.90;77.30;;;;;;5074453;28;20185;-70
2022/08/06 02:36:24;;;;;;;2.60;2.40;;;24.90;77.20;;;;;;5073990;28;20192;-71
2022/08/06 02:38:59;;;;;;;2.78;2.30;;;24.90;77.20;;;;;;5108083;28;20207;-70
2022/08/06 02:41:56;;;;;;;2.70;2.50;;;24.90;77.20;;;;;;5109772;28;20183;-70
2022/08/06 02:45:13;;;;;;;2.58;2.38;;;24.90;77.10;;;;;;5094874;28;20184;-70
2022/08/06 02:47:52;;;;;;;2.58;2.38;;;24.80;76.90;;;;;;5112184;28;20219;-70
2022/08/06 02:50:27;;;;;;;2.92;2.72;;;24.80;76.90;;;;;;5079010;28;20215;-71
2022/08/06 02:53:10;;;;;;;2.50;2.30;;;24.90;77.00;;;;;;5088512;28;20197;-70
2022/08/06 02:55:43;;;;;;;2.70;2.50;;;24.80;76.70;;;;;;5079372;28;20191;-70
2022/08/06 02:58:21;;;;;;;2.45;2.25;;;24.80;76.80;;;;;;5101108;28;20223;-70
2022/08/06 03:00:52;;;;;;;2.92;2.70;;;24.80;76.80;;;;;;5077980;28;20283;-70
2022/08/06 03:03:23;;;;;;;2.90;2.67;;;24.80;76.60;;;;;;5111773;28;20180;-70
2022/08/06 03:05:52;;;;;;;2.72;2.53;;;24.80;76.60;;;;;;5077621;28;20665;-70
2022/08/06 03:08:24;;;;;;;2.50;1.95;;;24.80;76.60;;;;;;5093563;28;20243;-70
2022/08/06 03:10:54;;;;;;;2.78;2.58;;;24.90;76.90;;;;;;5112446;28;20586;-70
2022/08/06 03:13:23;;;;;;;2.40;2.20;;;24.80;76.60;;;;;;5111347;28;20276;-70
2022/08/06 03:15:50;;;;;;;2.80;2.20;;;24.80;76.70;;;;;;5094445;28;20212;-70
2022/08/06 03:18:18;;;;;;;2.78;2.47;;;24.80;76.60;;;;;;5111812;28;20200;-70
2022/08/06 03:20:45;;;;;;;2.20;2.10;;;24.80;76.50;;;;;;5094124;28;20180;-70
2022/08/06 03:23:13;;;;;;;2.45;2.20;;;24.80;76.50;;;;;;5077118;28;20267;-70
2022/08/06 03:25:40;;;;;;;2.72;2.22;;;24.80;76.50;;;;;;5077563;28;20172;-70
2022/08/06 03:28:09;;;;;;;2.45;2.28;;;24.80;76.40;;;;;;5093481;28;20200;-71
2022/08/06 03:30:36;;;;;;;2.38;1.80;;;24.80;76.40;;;;;;5094159;28;20218;-70
2022/08/06 03:33:10;;;;;;;2.45;2.25;;;24.80;76.30;;;;;;5112708;28;20259;-70
2022/08/06 03:35:37;;;;;;;2.38;2.20;;;24.80;76.40;;;;;;5093985;28;20191;-70
2022/08/06 03:38:07;;;;;;;2.67;2.47;;;24.80;76.30;;;;;;5093191;28;20244;-70
2022/08/06 03:40:34;;;;;;;1.90;1.80;;;24.80;76.30;;;;;;5093796;28;20176;-72
2022/08/06 03:43:00;;;;;;;2.45;2.10;;;24.80;76.30;;;;;;5077250;28;20188;-70
2022/08/06 03:45:29;;;;;;;2.20;2.10;;;24.80;76.30;;;;;;5093745;28;20180;-70
2022/08/06 03:47:59;;;;;;;2.38;2.17;;;24.80;76.30;;;;;;5111536;28;20239;-70
2022/08/06 03:50:34;;;;;;;2.22;2.13;;;24.80;76.30;;;;;;5093799;28;20758;-70
2022/08/06 03:53:06;;;;;;;2.78;2.33;;;24.80;76.20;;;;;;5111080;28;20266;-70
2022/08/06 03:55:37;;;;;;;2.15;2.00;;;24.80;76.20;;;;;;5111691;28;20180;-70
2022/08/06 03:58:11;;;;;;;2.13;2.00;;;24.80;76.10;;;;;;5093127;28;20264;-70
2022/08/06 04:00:46;;;;;;;2.03;1.92;;;24.80;76.20;;;;;;5077060;28;20671;-70
2022/08/06 04:03:14;;;;;;;1.92;1.70;;;24.80;76.10;;;;;;5103829;28;20252;-70
2022/08/06 04:05:41;;;;;;;2.97;2.03;;;24.80;76.10;;;;;;5111092;28;20207;-70
2022/08/06 04:08:09;;;;;;;2.00;1.90;;;24.80;76.10;;;;;;5113915;28;20216;-70
2022/08/06 04:10:42;;;;;;;1.77;1.67;;;24.80;76.10;;;;;;5115711;28;20219;-71
2022/08/06 04:13:13;;;;;;;2.47;2.28;;;24.80;76.00;;;;;;5084857;28;20185;-70
2022/08/06 04:15:39;;;;;;;2.15;1.98;;;24.80;76.00;;;;;;5077087;28;20664;-70
2022/08/06 04:18:10;;;;;;;1.75;1.65;;;24.80;76.00;;;;;;5059821;28;20201;-70
2022/08/06 04:20:40;;;;;;;2.88;1.95;;;24.80;76.10;;;;;;5095276;28;20583;-70
2022/08/06 04:23:06;;;;;;;2.20;2.00;;;24.80;76.00;;;;;;5095137;28;20193;-70
2022/08/06 04:25:41;;;;;;;2.67;2.00;;;24.70;75.90;;;;;;5076903;28;20196;-71
2022/08/06 04:28:09;;;;;;;1.50;1.40;;;24.80;76.00;;;;;;5094615;28;20223;-70
2022/08/06 04:30:38;;;;;;;2.00;1.90;;;24.80;76.00;;;;;;5095030;28;20209;-70
2022/08/06 04:33:08;;;;;;;2.00;1.90;;;24.80;76.00;;;;;;5089625;28;20184;-72
2022/08/06 04:35:40;;;;;;;2.28;2.08;;;24.80;75.90;;;;;;5097054;28;20195;-71
2022/08/06 04:38:07;;;;;;;2.03;1.92;;;24.80;75.80;;;;;;5114126;28;20255;-70
2022/08/06 04:40:35;;;;;;;1.95;1.83;;;24.80;75.80;;;;;;5080375;28;20279;-70
2022/08/06 04:43:06;;;;;;;1.80;1.70;;;24.70;75.60;;;;;;5096940;28;20194;-70
2022/08/06 04:45:33;;;;;;;1.83;1.73;;;24.70;75.80;;;;;;5097071;28;20187;-70
2022/08/06 04:48:03;;;;;;;2.28;2.17;;;24.80;75.90;;;;;;5114586;28;20290;-70
2022/08/06 04:50:31;;;;;;;1.95;1.85;;;24.70;75.60;;;;;;5114936;28;20208;-70
2022/08/06 04:53:09;;;;;;;1.95;1.85;;;24.70;75.60;;;;;;5096917;28;20180;-70
2022/08/06 04:55:35;;;;;;;2.28;2.08;;;24.70;75.70;;;;;;5096703;28;20176;-70
2022/08/06 04:58:07;;;;;;;1.83;1.70;;;24.70;75.60;;;;;;5114384;28;20196;-70
2022/08/06 05:00:37;;;;;;;2.15;1.90;;;24.80;75.80;;;;;;5096747;28;20180;-70
2022/08/06 05:03:03;;;;;;;1.70;1.60;;;24.70;75.60;;;;;;5096927;28;20189;-70
2022/08/06 05:05:42;;;;;;;2.33;2.13;;;24.70;75.50;;;;;;5079638;28;20188;-72
2022/08/06 05:08:10;;;;;;;1.73;1.63;;;24.70;75.40;;;;;;5095684;28;20235;-70
2022/08/06 05:10:51;;;;;;;2.13;2.03;;;24.70;75.50;;;;;;5079605;28;20269;-70
2022/08/06 05:13:22;;;;;;;1.90;1.80;;;24.70;75.50;;;;;;5096422;28;20244;-70
2022/08/06 05:15:56;;;;;;;1.92;1.77;;;24.70;75.50;;;;;;5095927;28;20310;-70
2022/08/06 05:18:33;;;;;;;1.45;1.35;;;24.80;75.50;;;;;;5113845;28;20235;-71
2022/08/06 05:21:01;;;;;;;1.95;1.70;;;24.70;75.50;;;;;;5096361;28;20271;-70
2022/08/06 05:23:38;;;;;;;1.50;1.40;;;24.70;75.40;;;;;;5096288;28;20282;-70
2022/08/06 05:26:06;;;;;;;1.80;1.70;;;24.70;75.40;;;;;;5114539;28;20230;-70
2022/08/06 05:28:33;;;;;;;1.80;1.70;;;24.70;75.50;;;;;;5112994;28;20229;-70
2022/08/06 05:30:58;;;;;;;1.45;1.35;;;24.80;75.60;;;;;;5104553;28;20212;-70
2022/08/06 05:33:32;;;;;;;1.40;1.30;;;24.70;75.40;;;;;;5095963;28;20237;-70
2022/08/06 05:36:00;;;;;;;1.92;1.83;;;24.70;75.50;;;;;;5113388;28;20194;-70
2022/08/06 05:38:27;;;;;;;1.65;1.55;;;24.70;75.40;;;;;;5111883;28;20620;-70
2022/08/06 05:40:55;;;;;;;1.92;1.80;;;24.70;75.40;;;;;;5112860;28;20180;-71
2022/08/06 05:43:22;;;;;;;1.70;1.60;;;24.70;75.30;;;;;;5112903;28;20220;-70
2022/08/06 05:45:53;;;;;;;1.85;1.73;;;24.70;75.30;;;;;;5095945;28;20192;-70
2022/08/06 05:48:22;;;;;;;1.90;1.55;;;24.70;75.30;;;;;;5112316;28;20239;-70
2022/08/06 05:50:56;;;;;;;1.60;1.50;;;24.70;75.30;;;;;;5095739;28;20223;-70
2022/08/06 05:53:30;;;;;;;1.73;1.48;;;24.70;75.40;;;;;;5112526;28;20596;-71
2022/08/06 05:56:13;;;;;;;1.92;1.70;;;24.70;75.30;;;;;;5113762;28;20176;-70
2022/08/06 05:58:46;;;;;;;1.73;1.63;;;24.70;75.20;;;;;;5113103;28;20274;-70
2022/08/06 06:01:13;;;;;;;1.60;1.50;;;24.70;75.40;;;;;;5113729;28;20176;-70
2022/08/06 06:03:42;;;;;;;1.73;1.63;;;24.70;75.20;;;;;;5112454;28;20184;-70
2022/08/06 06:06:09;;;;;;;1.75;1.65;;;24.70;75.20;;;;;;5112491;28;20188;-71
2022/08/06 06:08:36;;;;;;;1.40;1.30;;;24.70;75.20;;;;;;5111635;28;20271;-70
2022/08/06 06:11:04;;;;;;;1.70;1.60;;;24.70;75.20;;;;;;5112192;28;20706;-71
2022/08/06 06:13:31;;;;;;;1.58;1.48;;;24.70;75.10;;;;;;5095195;28;20191;-70
2022/08/06 06:16:24;;;;;;;1.40;1.30;;;24.70;75.10;;;;;;5095247;28;20188;-70
2022/08/06 06:19:15;;;;;;;1.77;1.67;;;24.70;75.20;;;;;;5108224;28;20175;-70
2022/08/06 06:22:03;;;;;;;1.55;1.45;;;24.70;75.20;;;;;;5095127;28;20204;-70
2022/08/06 06:24:40;;;;;;;1.60;1.50;;;24.70;75.10;;;;;;5113220;28;20176;-70
2022/08/06 06:27:24;;;;;;;1.60;1.50;;;24.70;75.00;;;;;;5093687;28;20206;-70
2022/08/06 06:30:30;;;;;;;1.40;1.30;;;24.60;74.90;;;;;;5094382;28;20257;-72
2022/08/06 06:33:28;;;;;;;1.40;1.40;;;24.70;75.10;;;;;;5088493;28;20187;-70
2022/08/06 06:35:59;;;;;;;1.45;1.35;;;24.70;75.00;;;;;;5094892;28;20184;-70
2022/08/06 06:39:09;;;;;;;1.75;1.65;;;24.70;75.00;;;;;;5094154;28;20230;-69
2022/08/06 06:41:49;;;;;;;1.85;1.50;;;24.60;75.00;;;;;;5091720;28;20196;-70
2022/08/06 06:44:35;;;;;;;2.05;1.48;;;24.70;75.00;;;;;;5111740;28;20730;-70
2022/08/06 06:47:12;;;;;;;1.55;1.45;;;24.60;74.80;;;;;;5112724;28;20203;-70
2022/08/06 06:49:46;;;;;;;2.72;1.42;;;24.70;74.90;;;;;;5094345;28;20223;-70
2022/08/06 06:52:26;;;;;;;1.58;1.48;;;24.60;74.80;;;;;;5112782;28;20643;-70
2022/08/06 06:55:19;;;;;;;1.50;1.40;;;24.60;74.90;;;;;;5094643;28;20677;-70
2022/08/06 06:57:55;;;;;;;2.10;1.70;;;24.60;74.90;;;;;;5112003;28;20249;-71
2022/08/06 07:00:23;;;;;;;1.60;1.50;;;24.60;74.80;;;;;;5111334;28;20195;-70
2022/08/06 07:02:52;;;;;;;1.85;1.38;;;24.60;74.70;;;;;;5094514;28;20248;-70
2022/08/06 07:05:21;;;;;;;1.75;1.45;;;24.70;74.80;;;;;;5094656;28;20325;-70
2022/08/06 07:07:49;;;;;;;1.50;1.40;;;24.60;74.80;;;;;;5076866;28;20254;-70
2022/08/06 07:10:19;;;;;;;1.50;1.40;;;24.60;74.70;;;;;;5112628;28;20212;-70
2022/08/06 07:12:47;;;;;;;1.60;1.50;;;24.60;74.80;;;;;;5077374;28;20176;-70
2022/08/06 07:15:15;;;;;;;1.55;1.48;;;24.60;74.80;;;;;;5094450;28;20242;-70
2022/08/06 07:17:43;;;;;;;1.63;1.40;;;24.60;74.70;;;;;;5093768;28;20200;-70
2022/08/06 07:20:12;;;;;;;1.50;1.40;;;24.60;74.60;;;;;;5111960;28;20188;-70
2022/08/06 07:22:42;;;;;;;1.60;1.50;;;24.60;74.70;;;;;;5094295;28;20273;-70
2022/08/06 07:25:13;;;;;;;1.58;1.48;;;24.60;74.70;;;;;;5112402;28;20188;-71
2022/08/06 07:27:48;;;;;;;1.35;1.25;;;24.60;74.70;;;;;;5094044;28;20228;-70
2022/08/06 07:30:17;;;;;;;1.33;1.23;;;24.60;74.60;;;;;;5094006;28;20300;-70
2022/08/06 07:32:45;;;;;;;1.67;1.58;;;24.60;74.70;;;;;;5094043;28;20180;-71
2022/08/06 07:35:12;;;;;;;1.27;1.27;;;24.60;74.70;;;;;;5077215;28;20229;-70
2022/08/06 07:37:56;;;;;;;2.35;1.58;;;24.60;74.50;;;;;;5095177;28;20203;-70
2022/08/06 07:40:29;;;;;;;1.58;1.48;;;24.60;74.70;;;;;;5098539;28;20282;-70
2022/08/06 07:43:10;;;;;;;1.27;1.27;;;24.60;74.60;;;;;;5115254;28;20195;-70
2022/08/06 07:45:37;;;;;;;1.27;1.23;;;24.60;74.50;;;;;;5115025;28;20180;-71
2022/08/06 07:48:11;;;;;;;2.03;1.58;;;24.60;74.50;;;;;;5097316;28;20772;-71
2022/08/06 07:50:39;;;;;;;1.60;1.50;;;24.60;74.60;;;;;;5098039;28;20284;-70
2022/08/06 07:53:06;;;;;;;1.92;1.50;;;24.60;74.40;;;;;;5098147;28;20180;-70
2022/08/06 07:55:33;;;;;;;2.03;1.30;;;24.60;74.60;;;;;;5097807;28;20267;-70
2022/08/06 07:58:01;;;;;;;1.88;1.52;;;24.60;74.40;;;;;;5080252;28;20204;-70
2022/08/06 08:00:27;;;;;;;1.60;1.50;;;24.70;74.60;;;;;;5097879;28;20181;-70
2022/08/06 08:08:29;;;;;;;1.40;1.40;;;24.60;74.10;;;;;;5114063;28;20265;-70
2022/08/06 08:10:55;;;;;;;1.55;1.45;;;24.70;74.20;;;;;;5097561;28;20211;-71
2022/08/06 08:13:24;;;;;;;1.50;1.40;;;24.70;74.10;;;;;;5080873;28;20172;-70
2022/08/06 08:15:51;;;;;;;1.60;1.50;;;24.70;74.00;;;;;;5115699;28;20192;-70
2022/08/06 08:18:17;;;;;;;1.55;1.45;;;24.70;74.00;;;;;;5114031;28;20638;-70
2022/08/06 08:20:44;;;;;;;1.40;1.40;;;24.70;73.90;;;;;;5114537;28;20184;-71
2022/08/06 08:23:13;;;;;;;1.85;1.40;;;24.70;73.90;;;;;;5097185;28;20261;-70
2022/08/06 08:25:39;;;;;;;1.40;1.30;;;24.80;74.00;;;;;;5115558;28;20275;-70
2022/08/06 08:28:07;;;;;;;1.50;1.40;;;24.80;74.00;;;;;;5096376;28;20214;-70
2022/08/06 08:30:33;;;;;;;1.38;1.27;;;24.80;74.00;;;;;;5114235;28;20366;-70
2022/08/06 08:32:59;;;;;;;1.60;1.50;;;24.80;73.80;;;;;;5115480;28;20278;-70
2022/08/06 08:35:25;;;;;;;2.20;1.60;;;24.80;73.40;;;;;;5114384;28;20184;-70
2022/08/06 08:37:50;;;;;;;1.83;1.73;;;24.80;73.60;;;;;;5096234;28;20203;-70
2022/08/06 08:40:16;;;;;;;1.90;1.80;;;24.80;73.60;;;;;;5093515;28;20192;-70
2022/08/06 08:42:53;;;;;;;1.70;1.60;;;24.80;73.30;;;;;;5060151;28;20185;-70
2022/08/06 08:45:21;;;;;;;1.25;1.25;;;24.80;73.50;;;;;;5059978;28;20188;-70
2022/08/06 08:47:52;;;;;;;1.30;1.30;;;24.80;73.30;;;;;;5076740;28;20208;-70
2022/08/06 08:50:26;;;;;;;1.70;1.60;;;24.80;73.20;;;;;;5075254;28;20208;-70
2022/08/06 08:53:00;;;;;;;1.63;1.52;;;24.80;73.60;;;;;;5060771;28;20165;-70
2022/08/06 08:55:27;;;;;;;1.50;1.40;;;24.80;73.20;;;;;;5076306;28;20199;-70
2022/08/06 08:57:55;;;;;;;1.42;1.33;;;24.80;73.20;;;;;;5094370;28;20208;-70
2022/08/06 09:00:21;;;;;;;1.67;1.58;;;24.80;73.20;;;;;;5059588;28;20207;-70
2022/08/06 09:02:50;;;;;;;1.60;1.42;;;24.80;73.30;;;;;;5059824;28;20187;-72
2022/08/06 09:05:17;;;;;;;2.00;1.80;;;24.80;73.30;;;;;;5076474;28;20184;-70
2022/08/06 09:07:43;;;;;;;1.52;1.42;;;24.80;73.40;;;;;;5076046;28;20212;-70
2022/08/06 09:10:11;;;;;;;1.45;1.35;;;24.80;73.50;;;;;;5093766;28;20208;-70
2022/08/06 09:12:37;;;;;;;1.70;1.60;;;24.80;73.00;;;;;;5094364;28;20173;-70
2022/08/06 09:15:03;;;;;;;1.52;1.42;;;24.80;72.90;;;;;;5076151;28;20185;-71
2022/08/06 09:17:31;;;;;;;1.60;1.50;;;24.80;72.70;;;;;;5059432;28;20277;-71
2022/08/06 09:19:57;;;;;;;2.00;1.60;;;24.80;72.50;;;;;;5075610;28;20188;-71
2022/08/06 09:22:22;;;;;;;1.58;1.45;;;24.80;72.50;;;;;;5059336;28;20652;-70
2022/08/06 09:24:48;;;;;;;1.75;1.65;;;24.80;73.00;;;;;;5076264;28;20173;-70
2022/08/06 09:27:17;;;;;;;1.88;1.77;;;24.80;72.60;;;;;;5075855;28;20201;-71
2022/08/06 09:29:55;;;;;;;1.67;1.58;;;24.80;72.80;;;;;;5075204;28;20209;-70
2022/08/06 09:32:45;;;;;;;1.48;1.38;;;24.80;72.80;;;;;;5076000;28;20185;-70
2022/08/06 09:35:28;;;;;;;1.67;1.58;;;24.80;72.60;;;;;;5094016;28;20657;-70
2022/08/06 09:38:08;;;;;;;1.50;1.38;;;24.80;72.40;;;;;;5058643;28;20204;-70
2022/08/06 09:40:34;;;;;;;1.80;1.70;;;24.80;72.40;;;;;;5075921;28;20166;-71
2022/08/06 09:43:00;;;;;;;1.63;1.52;;;24.90;72.20;;;;;;5075732;28;20185;-70
2022/08/06 09:45:27;;;;;;;1.50;1.40;;;24.80;72.10;;;;;;5075676;28;20192;-70
2022/08/06 09:48:07;;;;;;;1.75;1.52;;;24.80;72.10;;;;;;5075372;28;20209;-70
2022/08/06 09:50:38;;;;;;;1.58;1.48;;;24.80;72.10;;;;;;5075539;28;20208;-70
2022/08/06 09:53:04;;;;;;;1.95;1.67;;;24.80;72.30;;;;;;5093559;28;20177;-70
2022/08/06 09:55:32;;;;;;;1.73;1.63;;;24.80;72.10;;;;;;5075534;28;20200;-70
2022/08/06 09:57:59;;;;;;;1.70;1.60;;;24.80;72.20;;;;;;5075108;28;20327;-70
2022/08/06 10:00:37;;;;;;;1.48;1.40;;;24.80;72.40;;;;;;5074589;28;20185;-70
2022/08/06 10:03:07;;;;;;;1.60;1.50;;;24.80;72.40;;;;;;5093287;28;20667;-70
2022/08/06 10:05:33;;;;;;;1.92;1.77;;;24.90;73.10;;;;;;5075228;28;20185;-71
2022/08/06 10:08:17;;;;;;;1.67;1.50;;;24.80;72.40;;;;;;5092957;28;20244;-70
2022/08/06 10:10:50;;;;;;;2.05;1.70;;;24.80;72.30;;;;;;5074967;28;20330;-72
2022/08/06 10:13:26;;;;;;;1.58;1.48;;;24.80;72.10;;;;;;5075280;28;20232;-71
2022/08/06 10:15:55;;;;;;;1.80;1.70;;;24.90;72.00;;;;;;5074995;28;20184;-70
2022/08/06 10:18:37;;;;;;;1.58;1.42;;;24.80;72.00;;;;;;5098362;28;20187;-70
2022/08/06 10:21:27;;;;;;;1.45;1.35;;;24.90;71.90;;;;;;5113135;28;20172;-71
2022/08/06 10:23:58;;;;;;;1.60;1.50;;;24.80;72.10;;;;;;5112674;28;20184;-70
2022/08/06 10:26:28;;;;;;;2.30;1.60;;;24.80;72.00;;;;;;5095035;28;20180;-70
2022/08/06 10:28:54;;;;;;;1.85;1.50;;;24.80;71.90;;;;;;5094520;28;20180;-70
2022/08/06 10:31:21;;;;;;;1.50;1.40;;;24.90;72.00;;;;;;5091132;28;20209;-70
2022/08/06 10:34:02;;;;;;;1.50;1.40;;;24.90;72.20;;;;;;5074803;28;20169;-70
2022/08/06 10:36:50;;;;;;;1.77;1.67;;;24.90;72.00;;;;;;5074486;28;20184;-70
2022/08/06 10:39:16;;;;;;;1.27;1.27;;;24.90;72.00;;;;;;5057241;28;20185;-70
2022/08/06 10:41:44;;;;;;;1.60;1.55;;;24.90;71.90;;;;;;5074455;28;20177;-70
2022/08/06 10:44:11;;;;;;;1.70;1.60;;;24.90;71.60;;;;;;5074434;28;20368;-70
2022/08/06 10:46:37;;;;;;;1.70;1.60;;;24.90;71.50;;;;;;5057549;28;20185;-70
2022/08/06 10:49:06;;;;;;;1.73;1.63;;;24.90;72.00;;;;;;5091951;28;20185;-70
2022/08/06 10:51:33;;;;;;;1.55;1.45;;;24.90;72.10;;;;;;5074416;28;20181;-70
2022/08/06 10:53:59;;;;;;;1.52;1.42;;;24.90;71.70;;;;;;5074276;28;20195;-70
2022/08/06 10:56:26;;;;;;;1.30;1.30;;;24.90;71.90;;;;;;5057650;28;20188;-70
2022/08/06 10:58:53;;;;;;;1.60;1.50;;;24.90;71.80;;;;;;5091900;28;20180;-70
2022/08/06 11:01:43;;;;;;;1.52;1.42;;;24.90;72.10;;;;;;5092476;28;20177;-70
2022/08/06 11:05:01;;;;;;;1.58;1.48;;;24.90;71.80;;;;;;5074233;28;20234;-70
2022/08/06 11:07:54;;;;;;;1.50;1.40;;;24.90;71.70;;;;;;5056598;28;20264;-70
2022/08/06 11:10:43;;;;;;;1.70;1.60;;;24.90;71.80;;;;;;5073542;28;20274;-71
2022/08/06 11:13:19;;;;;;;1.60;1.50;;;24.90;72.10;;;;;;5073604;28;20413;-70
2022/08/06 11:15:45;;;;;;;1.42;1.40;;;24.90;72.00;;;;;;5057489;28;20287;-70
2022/08/06 11:18:12;;;;;;;1.30;1.20;;;24.90;72.00;;;;;;5073295;28;20207;-70
2022/08/06 11:20:45;;;;;;;1.58;1.48;;;24.80;71.80;;;;;;5074052;28;20188;-70
2022/08/06 11:23:13;;;;;;;1.65;1.55;;;24.90;71.70;;;;;;5073870;28;20234;-70
2022/08/06 11:25:45;;;;;;;1.85;1.75;;;24.90;71.60;;;;;;5073931;28;20184;-70
2022/08/06 11:28:13;;;;;;;1.48;1.38;;;24.90;71.60;;;;;;5073252;28;20287;-69
2022/08/06 11:30:54;;;;;;;1.42;1.35;;;24.90;71.70;;;;;;5073872;28;20254;-70
2022/08/06 11:33:41;;;;;;;1.85;1.52;;;24.90;71.40;;;;;;5091870;28;20344;-70
2022/08/06 11:36:12;;;;;;;1.70;1.60;;;24.90;71.60;;;;;;5091695;28;20238;-70
2022/08/06 11:38:47;;;;;;;1.83;1.60;;;24.90;71.70;;;;;;5072995;28;20201;-70
2022/08/06 11:41:21;;;;;;;1.52;1.42;;;24.90;71.70;;;;;;5073950;28;20250;-70
2022/08/06 11:43:53;;;;;;;1.52;1.42;;;24.90;71.60;;;;;;5073788;28;20220;-70
2022/08/06 11:46:37;;;;;;;1.63;1.52;;;24.90;71.30;;;;;;5057146;28;20242;-70
2022/08/06 11:49:18;;;;;;;1.90;1.80;;;24.90;71.40;;;;;;5056388;28;20181;-70
2022/08/06 11:51:58;;;;;;;1.50;1.38;;;24.90;71.40;;;;;;5091968;28;20195;-70
2022/08/06 11:54:26;;;;;;;1.33;1.25;;;24.90;71.20;;;;;;5073620;28;20669;-70
2022/08/06 11:57:01;;;;;;;1.58;1.48;;;24.90;71.20;;;;;;5091567;28;20205;-70
2022/08/06 11:59:35;;;;;;;2.05;1.95;;;24.90;71.60;;;;;;5056431;28;20196;-70
2022/08/06 12:02:05;;;;;;;1.52;1.42;;;24.90;71.60;;;;;;5073713;28;20181;-70
2022/08/06 12:04:36;;;;;;;1.70;1.60;;;24.90;71.50;;;;;;5073461;28;20284;-70
2022/08/06 12:07:36;;;;;;;1.60;1.50;;;24.90;71.40;;;;;;5091323;28;20204;-70
2022/08/06 12:10:05;;;;;;;1.50;1.40;;;24.90;71.50;;;;;;5072775;28;20266;-71
2022/08/06 12:12:36;;;;;;;1.60;1.50;;;24.90;71.20;;;;;;5073482;28;20188;-70
2022/08/06 12:15:11;;;;;;;1.52;1.42;;;24.90;71.10;;;;;;5073538;28;20554;-70
2022/08/06 12:17:40;;;;;;;1.70;1.60;;;24.90;71.30;;;;;;5073601;28;20232;-71
2022/08/06 12:20:08;;;;;;;1.65;1.55;;;24.90;71.00;;;;;;5056151;28;20185;-70
2022/08/06 12:22:36;;;;;;;1.85;1.75;;;25.00;71.10;;;;;;5079574;28;20196;-70
2022/08/06 12:25:12;;;;;;;1.95;1.80;;;24.90;71.10;;;;;;5097527;28;20183;-70
2022/08/06 12:27:38;;;;;;;1.48;1.38;;;25.00;71.40;;;;;;5097033;28;20290;-70
2022/08/06 12:30:06;;;;;;;1.73;1.63;;;25.00;71.00;;;;;;5080215;28;20223;-70
2022/08/06 12:32:35;;;;;;;1.77;1.70;;;24.90;71.40;;;;;;5115031;28;20301;-70
2022/08/06 12:35:10;;;;;;;1.75;1.65;;;24.90;70.70;;;;;;5114126;28;20180;-70
2022/08/06 12:37:45;;;;;;;1.60;1.50;;;24.90;70.70;;;;;;5096533;28;20215;-70
2022/08/06 12:40:23;;;;;;;1.60;1.50;;;24.90;70.70;;;;;;5096598;28;20183;-70
2022/08/06 12:42:51;;;;;;;1.60;1.50;;;24.90;70.30;;;;;;5097375;28;20184;-70
2022/08/06 12:45:25;;;;;;;1.77;1.67;;;24.90;70.20;;;;;;5115341;28;20187;-70
2022/08/06 12:48:06;;;;;;;1.77;1.67;;;24.90;70.70;;;;;;5096655;28;20199;-70
2022/08/06 12:50:34;;;;;;;1.70;1.60;;;24.90;70.20;;;;;;5096668;28;20306;-70
2022/08/06 12:53:04;;;;;;;1.50;1.40;;;24.90;70.70;;;;;;5115147;28;20601;-70
2022/08/06 12:55:31;;;;;;;1.70;1.60;;;25.00;71.00;;;;;;5115049;28;20176;-70
2022/08/06 12:57:59;;;;;;;1.60;1.50;;;24.90;70.60;;;;;;5096765;28;20317;-71
2022/08/06 13:00:27;;;;;;;1.60;1.50;;;24.90;70.60;;;;;;5079240;28;20184;-70
2022/08/06 13:02:54;;;;;;;1.70;1.60;;;24.90;70.60;;;;;;5096850;28;20579;-71
2022/08/06 13:05:25;;;;;;;1.63;1.52;;;24.90;70.50;;;;;;5114991;28;20216;-70
2022/08/06 13:07:55;;;;;;;1.35;1.27;;;25.00;70.30;;;;;;5114731;28;20294;-71
2022/08/06 13:10:21;;;;;;;1.80;1.70;;;24.90;70.00;;;;;;5096043;28;20253;-70
2022/08/06 13:13:05;;;;;;;1.70;1.60;;;24.90;70.20;;;;;;5096627;28;20180;-70
2022/08/06 13:15:32;;;;;;;1.65;1.55;;;24.90;70.20;;;;;;5079738;28;20176;-70
2022/08/06 13:18:07;;;;;;;1.65;1.55;;;25.00;70.30;;;;;;5096392;28;20208;-70
2022/08/06 13:20:41;;;;;;;1.88;1.77;;;25.00;70.00;;;;;;5114083;28;20180;-71